sensor_id;sensor_type;location;lat;lon;timestamp;pressure;altitude;pressure_sealevel;temperature;humidity
41222;BME280;26952;42.884;23.918;2023-02-02T00:01:25;95897.94;;;3.20;100.00
41222;BME280;26952;42.884;23.918;2023-02-02T00:03:51;95898.38;;;3.25;100.00
41222;BME280;26952;42.884;23.918;2023-02-02T00:06:21;95924.28;;;3.28;100.00
41222;BME280;26952;42.884;23.918;2023-02-02T00:08:47;95921.53;;;3.30;100.00
41222;BME280;26952;42.884;23.918;2023-02-02T00:11:13;95894.06;;;3.04;100.00
41222;BME280;26952;42.884;23.918;2023-02-02T00:13:39;95929.06;;;3.23;100.00
41222;BME280;26952;42.884;23.918;2023-02-02T00:18:57;95910.03;;;3.21;100.00
41222;BME280;26952;42.884;23.918;2023-02-02T00:21:24;95901.31;;;3.11;100.00
41222;BME280;26952;42.884;23.918;2023-02-02T00:23:50;95895.38;;;3.09;100.00
41222;BME280;26952;42.884;23.918;2023-02-02T00:26:17;95880.56;;;2.99;100.00
41222;BME280;26952;42.884;23.918;2023-02-02T00:28:42;95883.81;;;2.91;100.00
41222;BME280;26952;42.884;23.918;2023-02-02T00:31:08;95892.50;;;2.92;100.00
41222;BME280;26952;42.884;23.918;2023-02-02T00:33:33;95885.03;;;2.76;100.00
41222;BME280;26952;42.884;23.918;2023-02-02T00:35:59;95892.69;;;2.68;100.00
41222;BME280;26952;42.884;23.918;2023-02-02T00:38:24;95880.38;;;2.59;100.00
41222;BME280;26952;42.884;23.918;2023-02-02T00:40:49;95886.69;;;2.45;100.00
41222;BME280;26952;42.884;23.918;2023-02-02T00:43:15;95872.13;;;2.21;100.00
41222;BME280;26952;42.884;23.918;2023-02-02T00:45:40;95878.34;;;2.09;100.00
41222;BME280;26952;42.884;23.918;2023-02-02T00:48:06;95870.03;;;2.04;100.00
41222;BME280;26952;42.884;23.918;2023-02-02T00:50:31;95855.09;;;1.95;100.00
41222;BME280;26952;42.884;23.918;2023-02-02T00:52:57;95859.84;;;1.90;100.00
41222;BME280;26952;42.884;23.918;2023-02-02T00:55:25;95857.22;;;1.90;100.00
41222;BME280;26952;42.884;23.918;2023-02-02T00:57:51;95866.25;;;1.86;100.00
41222;BME280;26952;42.884;23.918;2023-02-02T01:00:20;95832.81;;;1.58;100.00
41222;BME280;26952;42.884;23.918;2023-02-02T01:02:48;95868.03;;;1.74;100.00
41222;BME280;26952;42.884;23.918;2023-02-02T01:05:14;95860.69;;;1.68;100.00
41222;BME280;26952;42.884;23.918;2023-02-02T01:07:40;95851.31;;;1.55;100.00
41222;BME280;26952;42.884;23.918;2023-02-02T01:10:09;95860.72;;;1.57;100.00
41222;BME280;26952;42.884;23.918;2023-02-02T01:12:35;95846.59;;;1.49;100.00
41222;BME280;26952;42.884;23.918;2023-02-02T01:15:01;95858.91;;;1.69;100.00
41222;BME280;26952;42.884;23.918;2023-02-02T01:17:26;95841.59;;;1.57;100.00
41222;BME280;26952;42.884;23.918;2023-02-02T01:19:52;95860.56;;;1.48;100.00
41222;BME280;26952;42.884;23.918;2023-02-02T01:22:18;95857.34;;;1.33;100.00
41222;BME280;26952;42.884;23.918;2023-02-02T01:24:43;95853.56;;;1.15;100.00
41222;BME280;26952;42.884;23.918;2023-02-02T01:27:09;95853.88;;;1.10;100.00
41222;BME280;26952;42.884;23.918;2023-02-02T01:29:34;95840.81;;;0.88;100.00
41222;BME280;26952;42.884;23.918;2023-02-02T01:31:59;95836.69;;;0.97;100.00
41222;BME280;26952;42.884;23.918;2023-02-02T01:34:25;95844.38;;;0.87;100.00
41222;BME280;26952;42.884;23.918;2023-02-02T01:36:50;95823.44;;;0.65;100.00
41222;BME280;26952;42.884;23.918;2023-02-02T01:39:16;95845.13;;;0.66;100.00
41222;BME280;26952;42.884;23.918;2023-02-02T01:41:41;95827.47;;;0.58;100.00
41222;BME280;26952;42.884;23.918;2023-02-02T01:47:09;95852.53;;;0.59;100.00
41222;BME280;26952;42.884;23.918;2023-02-02T01:49:35;95842.84;;;0.61;100.00
41222;BME280;26952;42.884;23.918;2023-02-02T01:52:03;95839.28;;;0.62;100.00
41222;BME280;26952;42.884;23.918;2023-02-02T01:54:41;95838.03;;;0.68;100.00
41222;BME280;26952;42.884;23.918;2023-02-02T01:57:16;95830.13;;;0.80;100.00
41222;BME280;26952;42.884;23.918;2023-02-02T01:59:45;95805.91;;;0.56;100.00
41222;BME280;26952;42.884;23.918;2023-02-02T02:02:12;95854.06;;;0.85;100.00
41222;BME280;26952;42.884;23.918;2023-02-02T02:04:37;95832.50;;;0.83;100.00
41222;BME280;26952;42.884;23.918;2023-02-02T02:07:04;95859.66;;;0.92;100.00
41222;BME280;26952;42.884;23.918;2023-02-02T02:09:29;95855.03;;;0.95;100.00
41222;BME280;26952;42.884;23.918;2023-02-02T02:11:55;95850.38;;;0.88;100.00
41222;BME280;26952;42.884;23.918;2023-02-02T02:14:21;95824.19;;;0.78;100.00
41222;BME280;26952;42.884;23.918;2023-02-02T02:17:20;95859.28;;;0.85;100.00
41222;BME280;26952;42.884;23.918;2023-02-02T02:37:46;95837.75;;;0.60;100.00
41222;BME280;26952;42.884;23.918;2023-02-02T02:40:36;95854.25;;;0.71;100.00
41222;BME280;26952;42.884;23.918;2023-02-02T02:43:10;95757.84;;;-0.09;100.00
41222;BME280;26952;42.884;23.918;2023-02-02T02:45:38;95841.38;;;0.46;100.00
41222;BME280;26952;42.884;23.918;2023-02-02T02:48:04;95842.59;;;0.30;100.00
41222;BME280;26952;42.884;23.918;2023-02-02T02:50:29;95832.50;;;0.25;100.00
41222;BME280;26952;42.884;23.918;2023-02-02T02:53:04;95829.53;;;0.19;100.00
41222;BME280;26952;42.884;23.918;2023-02-02T02:55:38;95826.41;;;0.14;100.00
41222;BME280;26952;42.884;23.918;2023-02-02T02:58:54;95795.22;;;-0.10;100.00
41222;BME280;26952;42.884;23.918;2023-02-02T03:04:02;95854.00;;;0.40;100.00
41222;BME280;26952;42.884;23.918;2023-02-02T03:06:42;95839.22;;;0.40;100.00
41222;BME280;26952;42.884;23.918;2023-02-02T03:09:15;95833.00;;;0.30;100.00
41222;BME280;26952;42.884;23.918;2023-02-02T03:11:43;95839.66;;;0.34;100.00
41222;BME280;26952;42.884;23.918;2023-02-02T03:14:08;95844.84;;;0.34;100.00
41222;BME280;26952;42.884;23.918;2023-02-02T03:16:35;95851.00;;;0.33;100.00
41222;BME280;26952;42.884;23.918;2023-02-02T03:19:01;95834.00;;;0.40;100.00
41222;BME280;26952;42.884;23.918;2023-02-02T03:21:29;95830.31;;;0.32;100.00
41222;BME280;26952;42.884;23.918;2023-02-02T03:23:54;95823.88;;;0.25;100.00
41222;BME280;26952;42.884;23.918;2023-02-02T03:26:19;95836.00;;;0.37;100.00
41222;BME280;26952;42.884;23.918;2023-02-02T03:28:46;95823.38;;;0.43;100.00
41222;BME280;26952;42.884;23.918;2023-02-02T03:31:12;95826.31;;;0.39;100.00
41222;BME280;26952;42.884;23.918;2023-02-02T03:33:37;95832.22;;;0.41;100.00
41222;BME280;26952;42.884;23.918;2023-02-02T03:36:04;95813.19;;;0.40;100.00
41222;BME280;26952;42.884;23.918;2023-02-02T03:38:36;95825.47;;;0.38;100.00
41222;BME280;26952;42.884;23.918;2023-02-02T03:41:03;95818.78;;;0.47;100.00
41222;BME280;26952;42.884;23.918;2023-02-02T03:43:29;95827.41;;;0.47;100.00
41222;BME280;26952;42.884;23.918;2023-02-02T03:46:01;95842.31;;;0.45;100.00
41222;BME280;26952;42.884;23.918;2023-02-02T03:48:28;95831.69;;;0.48;100.00
41222;BME280;26952;42.884;23.918;2023-02-02T03:50:54;95828.34;;;0.46;100.00
41222;BME280;26952;42.884;23.918;2023-02-02T03:53:19;95836.38;;;0.43;100.00
41222;BME280;26952;42.884;23.918;2023-02-02T03:55:45;95822.22;;;0.24;100.00
41222;BME280;26952;42.884;23.918;2023-02-02T03:58:10;95822.34;;;0.22;100.00
41222;BME280;26952;42.884;23.918;2023-02-02T04:00:36;95832.25;;;0.17;100.00
41222;BME280;26952;42.884;23.918;2023-02-02T04:03:01;95827.31;;;0.02;100.00
41222;BME280;26952;42.884;23.918;2023-02-02T04:05:26;95817.03;;;-0.13;100.00
41222;BME280;26952;42.884;23.918;2023-02-02T04:07:52;95790.59;;;-0.30;100.00
41222;BME280;26952;42.884;23.918;2023-02-02T04:10:18;95805.56;;;-0.21;100.00
41222;BME280;26952;42.884;23.918;2023-02-02T04:12:43;95828.19;;;-0.11;100.00
41222;BME280;26952;42.884;23.918;2023-02-02T04:15:09;95836.94;;;-0.12;100.00
41222;BME280;26952;42.884;23.918;2023-02-02T04:17:35;95826.88;;;0.08;100.00
41222;BME280;26952;42.884;23.918;2023-02-02T04:20:02;95851.56;;;0.26;100.00
41222;BME280;26952;42.884;23.918;2023-02-02T04:22:28;95829.53;;;-0.05;100.00
41222;BME280;26952;42.884;23.918;2023-02-02T04:24:53;95851.03;;;-0.03;100.00
41222;BME280;26952;42.884;23.918;2023-02-02T04:27:19;95861.03;;;0.03;100.00
41222;BME280;26952;42.884;23.918;2023-02-02T04:29:44;95834.41;;;-0.01;100.00
41222;BME280;26952;42.884;23.918;2023-02-02T04:32:09;95841.47;;;-0.03;100.00
41222;BME280;26952;42.884;23.918;2023-02-02T04:34:35;95850.50;;;0.05;100.00
41222;BME280;26952;42.884;23.918;2023-02-02T04:37:00;95857.03;;;0.10;100.00
41222;BME280;26952;42.884;23.918;2023-02-02T04:39:26;95852.56;;;0.12;100.00
41222;BME280;26952;42.884;23.918;2023-02-02T04:41:51;95860.81;;;0.06;100.00
41222;BME280;26952;42.884;23.918;2023-02-02T04:44:16;95861.72;;;0.05;100.00
41222;BME280;26952;42.884;23.918;2023-02-02T04:46:43;95864.84;;;0.10;100.00
41222;BME280;26952;42.884;23.918;2023-02-02T04:49:09;95866.19;;;0.16;100.00
41222;BME280;26952;42.884;23.918;2023-02-02T04:51:36;95855.94;;;0.25;100.00
41222;BME280;26952;42.884;23.918;2023-02-02T04:54:01;95875.91;;;0.25;100.00
41222;BME280;26952;42.884;23.918;2023-02-02T04:56:27;95879.81;;;0.43;100.00
41222;BME280;26952;42.884;23.918;2023-02-02T04:58:53;95870.88;;;0.34;100.00
41222;BME280;26952;42.884;23.918;2023-02-02T05:01:19;95861.13;;;0.25;100.00
41222;BME280;26952;42.884;23.918;2023-02-02T05:03:45;95876.13;;;0.22;100.00
41222;BME280;26952;42.884;23.918;2023-02-02T05:06:11;95863.91;;;0.11;100.00
41222;BME280;26952;42.884;23.918;2023-02-02T05:08:36;95873.53;;;-0.02;100.00
41222;BME280;26952;42.884;23.918;2023-02-02T05:11:06;95884.53;;;0.02;100.00
41222;BME280;26952;42.884;23.918;2023-02-02T05:13:32;95886.25;;;-0.10;100.00
41222;BME280;26952;42.884;23.918;2023-02-02T05:15:58;95889.66;;;-0.10;100.00
41222;BME280;26952;42.884;23.918;2023-02-02T05:18:23;95881.84;;;-0.10;100.00
41222;BME280;26952;42.884;23.918;2023-02-02T05:20:50;95869.31;;;-0.28;100.00
41222;BME280;26952;42.884;23.918;2023-02-02T05:23:16;95882.63;;;-0.20;100.00
41222;BME280;26952;42.884;23.918;2023-02-02T05:25:41;95883.75;;;-0.24;100.00
41222;BME280;26952;42.884;23.918;2023-02-02T05:28:06;95884.00;;;-0.40;100.00
41222;BME280;26952;42.884;23.918;2023-02-02T05:30:32;95879.13;;;-0.44;100.00
41222;BME280;26952;42.884;23.918;2023-02-02T05:32:57;95888.78;;;-0.46;100.00
41222;BME280;26952;42.884;23.918;2023-02-02T05:35:23;95881.53;;;-0.54;100.00
41222;BME280;26952;42.884;23.918;2023-02-02T05:37:48;95885.66;;;-0.39;100.00
41222;BME280;26952;42.884;23.918;2023-02-02T05:40:13;95892.41;;;-0.36;100.00
41222;BME280;26952;42.884;23.918;2023-02-02T05:42:39;95894.38;;;-0.27;100.00
41222;BME280;26952;42.884;23.918;2023-02-02T05:45:05;95902.25;;;-0.16;100.00
41222;BME280;26952;42.884;23.918;2023-02-02T05:47:30;95906.00;;;-0.20;100.00
41222;BME280;26952;42.884;23.918;2023-02-02T05:49:56;95900.38;;;-0.14;100.00
41222;BME280;26952;42.884;23.918;2023-02-02T05:52:22;95907.34;;;-0.02;100.00
41222;BME280;26952;42.884;23.918;2023-02-02T05:54:49;95917.38;;;0.15;100.00
41222;BME280;26952;42.884;23.918;2023-02-02T05:57:15;95917.72;;;0.34;100.00
41222;BME280;26952;42.884;23.918;2023-02-02T05:59:40;95902.84;;;0.36;100.00
41222;BME280;26952;42.884;23.918;2023-02-02T06:02:05;95908.31;;;0.44;100.00
41222;BME280;26952;42.884;23.918;2023-02-02T06:04:31;95895.34;;;0.55;100.00
41222;BME280;26952;42.884;23.918;2023-02-02T06:06:56;95902.13;;;0.58;100.00
41222;BME280;26952;42.884;23.918;2023-02-02T06:09:22;95911.09;;;0.77;100.00
41222;BME280;26952;42.884;23.918;2023-02-02T06:11:49;95897.88;;;0.91;100.00
41222;BME280;26952;42.884;23.918;2023-02-02T06:14:14;95902.44;;;1.00;100.00
41222;BME280;26952;42.884;23.918;2023-02-02T06:16:40;95911.94;;;1.12;100.00
41222;BME280;26952;42.884;23.918;2023-02-02T06:19:05;95904.56;;;1.06;100.00
41222;BME280;26952;42.884;23.918;2023-02-02T06:21:31;95916.25;;;1.24;100.00
41222;BME280;26952;42.884;23.918;2023-02-02T06:23:56;95916.50;;;1.43;100.00
41222;BME280;26952;42.884;23.918;2023-02-02T06:26:22;95818.63;;;0.83;100.00
41222;BME280;26952;42.884;23.918;2023-02-02T06:28:51;95900.88;;;1.43;100.00
41222;BME280;26952;42.884;23.918;2023-02-02T06:31:17;95905.59;;;1.50;100.00
41222;BME280;26952;42.884;23.918;2023-02-02T06:33:56;95876.91;;;1.38;100.00
41222;BME280;26952;42.884;23.918;2023-02-02T06:36:24;95913.31;;;1.51;100.00
41222;BME280;26952;42.884;23.918;2023-02-02T06:38:51;95925.91;;;1.68;100.00
41222;BME280;26952;42.884;23.918;2023-02-02T06:41:18;95920.34;;;1.73;100.00
41222;BME280;26952;42.884;23.918;2023-02-02T06:43:45;95924.84;;;1.82;100.00
41222;BME280;26952;42.884;23.918;2023-02-02T06:46:10;95930.28;;;1.90;100.00
41222;BME280;26952;42.884;23.918;2023-02-02T06:48:36;95932.69;;;1.93;100.00
41222;BME280;26952;42.884;23.918;2023-02-02T06:51:02;95941.00;;;1.98;100.00
41222;BME280;26952;42.884;23.918;2023-02-02T06:53:30;95950.34;;;2.11;100.00
41222;BME280;26952;42.884;23.918;2023-02-02T06:55:57;95933.03;;;2.10;100.00
41222;BME280;26952;42.884;23.918;2023-02-02T06:58:23;95948.09;;;2.29;100.00
41222;BME280;26952;42.884;23.918;2023-02-02T07:00:48;95935.50;;;2.34;100.00
41222;BME280;26952;42.884;23.918;2023-02-02T07:03:15;95932.66;;;2.48;99.88
41222;BME280;26952;42.884;23.918;2023-02-02T07:05:40;95938.88;;;2.67;100.00
41222;BME280;26952;42.884;23.918;2023-02-02T07:08:06;95935.19;;;2.70;100.00
41222;BME280;26952;42.884;23.918;2023-02-02T07:10:31;95943.84;;;2.81;100.00
41222;BME280;26952;42.884;23.918;2023-02-02T07:12:56;95946.44;;;2.81;100.00
41222;BME280;26952;42.884;23.918;2023-02-02T07:15:22;95951.06;;;2.89;99.03
41222;BME280;26952;42.884;23.918;2023-02-02T07:17:47;95922.47;;;2.76;94.11
41222;BME280;26952;42.884;23.918;2023-02-02T07:20:13;95917.63;;;2.72;94.11
41222;BME280;26952;42.884;23.918;2023-02-02T07:22:39;95951.69;;;2.81;97.77
41222;BME280;26952;42.884;23.918;2023-02-02T07:25:06;95946.34;;;2.72;98.53
41222;BME280;26952;42.884;23.918;2023-02-02T07:27:31;95931.06;;;2.56;96.89
41222;BME280;26952;42.884;23.918;2023-02-02T07:29:57;95931.03;;;2.78;86.41
41222;BME280;26952;42.884;23.918;2023-02-02T07:32:23;95929.88;;;3.24;79.55
41222;BME280;26952;42.884;23.918;2023-02-02T07:34:48;95922.16;;;3.43;81.99
41222;BME280;26952;42.884;23.918;2023-02-02T07:37:14;95926.00;;;3.59;77.86
41222;BME280;26952;42.884;23.918;2023-02-02T07:39:39;95919.34;;;3.76;76.49
41222;BME280;26952;42.884;23.918;2023-02-02T07:42:05;95917.19;;;3.81;75.24
41222;BME280;26952;42.884;23.918;2023-02-02T07:44:32;95909.50;;;3.68;79.68
41222;BME280;26952;42.884;23.918;2023-02-02T07:46:58;95908.63;;;3.58;72.62
41222;BME280;26952;42.884;23.918;2023-02-02T07:49:23;95907.22;;;3.75;72.25
41222;BME280;26952;42.884;23.918;2023-02-02T07:51:48;95911.38;;;3.77;71.78
41222;BME280;26952;42.884;23.918;2023-02-02T07:54:14;95901.78;;;3.87;68.17
41222;BME280;26952;42.884;23.918;2023-02-02T07:56:40;95915.91;;;4.05;66.15
41222;BME280;26952;42.884;23.918;2023-02-02T07:59:05;95897.81;;;4.33;62.55
41222;BME280;26952;42.884;23.918;2023-02-02T08:01:31;95898.84;;;4.51;61.82
41222;BME280;26952;42.884;23.918;2023-02-02T08:03:57;95909.75;;;4.65;70.59
41222;BME280;26952;42.884;23.918;2023-02-02T08:06:35;95889.03;;;4.53;64.12
41222;BME280;26952;42.884;23.918;2023-02-02T08:09:02;95889.38;;;4.88;59.73
41222;BME280;26952;42.884;23.918;2023-02-02T08:11:28;95893.22;;;5.12;62.02
41222;BME280;26952;42.884;23.918;2023-02-02T08:13:58;95882.59;;;5.33;62.33
41222;BME280;26952;42.884;23.918;2023-02-02T08:16:25;95887.34;;;5.66;62.70
41222;BME280;26952;42.884;23.918;2023-02-02T08:18:51;95879.25;;;6.06;58.34
41222;BME280;26952;42.884;23.918;2023-02-02T08:21:17;95869.03;;;6.30;55.86
41222;BME280;26952;42.884;23.918;2023-02-02T08:23:42;95846.97;;;6.40;54.61
41222;BME280;26952;42.884;23.918;2023-02-02T08:26:09;95882.25;;;6.82;52.98
41222;BME280;26952;42.884;23.918;2023-02-02T08:28:35;95853.50;;;6.98;52.61
41222;BME280;26952;42.884;23.918;2023-02-02T08:31:08;95857.00;;;7.42;51.78
41222;BME280;26952;42.884;23.918;2023-02-02T08:33:34;95859.50;;;7.69;50.38
41222;BME280;26952;42.884;23.918;2023-02-02T08:36:00;95849.78;;;7.70;48.00
41222;BME280;26952;42.884;23.918;2023-02-02T08:38:26;95865.06;;;7.41;50.69
41222;BME280;26952;42.884;23.918;2023-02-02T08:40:51;95862.50;;;7.49;50.58
41222;BME280;26952;42.884;23.918;2023-02-02T08:43:17;95869.69;;;7.47;49.00
41222;BME280;26952;42.884;23.918;2023-02-02T08:45:42;95854.91;;;7.28;50.06
41222;BME280;26952;42.884;23.918;2023-02-02T08:48:08;95866.09;;;7.73;49.64
41222;BME280;26952;42.884;23.918;2023-02-02T08:50:34;95868.94;;;8.05;49.71
41222;BME280;26952;42.884;23.918;2023-02-02T08:52:59;95871.25;;;8.08;49.44
41222;BME280;26952;42.884;23.918;2023-02-02T08:55:25;95876.72;;;8.15;49.86
41222;BME280;26952;42.884;23.918;2023-02-02T08:57:50;95870.41;;;8.33;46.85
41222;BME280;26952;42.884;23.918;2023-02-02T09:00:16;95873.50;;;8.71;49.47
41222;BME280;26952;42.884;23.918;2023-02-02T09:02:41;95854.63;;;8.99;46.46
41222;BME280;26952;42.884;23.918;2023-02-02T09:05:07;95863.88;;;9.19;45.41
41222;BME280;26952;42.884;23.918;2023-02-02T09:07:32;95865.03;;;9.33;46.01
41222;BME280;26952;42.884;23.918;2023-02-02T09:09:58;95855.31;;;9.17;45.18
41222;BME280;26952;42.884;23.918;2023-02-02T09:12:24;95854.31;;;9.10;46.00
41222;BME280;26952;42.884;23.918;2023-02-02T09:14:50;95857.28;;;9.15;46.36
41222;BME280;26952;42.884;23.918;2023-02-02T09:17:15;95838.66;;;8.51;46.38
41222;BME280;26952;42.884;23.918;2023-02-02T09:19:40;95874.28;;;8.55;48.89
41222;BME280;26952;42.884;23.918;2023-02-02T09:22:06;95845.66;;;8.76;47.69
41222;BME280;26952;42.884;23.918;2023-02-02T09:24:31;95859.09;;;9.23;46.30
41222;BME280;26952;42.884;23.918;2023-02-02T09:26:56;95847.72;;;9.22;45.47
41222;BME280;26952;42.884;23.918;2023-02-02T09:29:22;95815.38;;;9.04;45.39
41222;BME280;26952;42.884;23.918;2023-02-02T09:31:47;95853.47;;;9.42;46.45
41222;BME280;26952;42.884;23.918;2023-02-02T09:34:14;95824.56;;;9.72;44.80
41222;BME280;26952;42.884;23.918;2023-02-02T09:36:41;95836.25;;;9.86;45.04
41222;BME280;26952;42.884;23.918;2023-02-02T09:39:07;95817.88;;;10.01;44.85
41222;BME280;26952;42.884;23.918;2023-02-02T09:44:54;95818.28;;;9.81;44.50
41222;BME280;26952;42.884;23.918;2023-02-02T09:55:44;95820.97;;;9.33;47.62
41222;BME280;26952;42.884;23.918;2023-02-02T09:58:27;95826.25;;;9.33;47.74
41222;BME280;26952;42.884;23.918;2023-02-02T10:14:54;95807.94;;;9.40;48.41
41222;BME280;26952;42.884;23.918;2023-02-02T10:18:16;95805.75;;;9.35;48.90
41222;BME280;26952;42.884;23.918;2023-02-02T10:23:12;95799.72;;;9.98;48.21
41222;BME280;26952;42.884;23.918;2023-02-02T10:25:45;95796.38;;;10.04;47.49
41222;BME280;26952;42.884;23.918;2023-02-02T10:28:18;95801.69;;;9.96;48.36
41222;BME280;26952;42.884;23.918;2023-02-02T10:30:46;95786.91;;;9.70;47.13
41222;BME280;26952;42.884;23.918;2023-02-02T10:33:35;95784.56;;;9.83;47.23
41222;BME280;26952;42.884;23.918;2023-02-02T10:36:20;95776.13;;;9.88;48.33
41222;BME280;26952;42.884;23.918;2023-02-02T10:41:29;95768.44;;;10.48;48.99
41222;BME280;26952;42.884;23.918;2023-02-02T10:51:31;95751.88;;;10.54;45.44
41222;BME280;26952;42.884;23.918;2023-02-02T10:53:59;95752.53;;;10.78;44.81
41222;BME280;26952;42.884;23.918;2023-02-02T10:56:37;95762.25;;;10.86;44.91
41222;BME280;26952;42.884;23.918;2023-02-02T11:01:35;95762.44;;;10.54;44.91
41222;BME280;26952;42.884;23.918;2023-02-02T11:04:00;95752.44;;;10.03;45.07
41222;BME280;26952;42.884;23.918;2023-02-02T11:06:44;95759.09;;;9.82;47.21
41222;BME280;26952;42.884;23.918;2023-02-02T11:09:37;95729.25;;;9.74;47.13
41222;BME280;26952;42.884;23.918;2023-02-02T11:12:12;95732.16;;;9.24;46.91
41222;BME280;26952;42.884;23.918;2023-02-02T11:15:08;95748.00;;;8.52;49.51
41222;BME280;26952;42.884;23.918;2023-02-02T11:17:46;95727.06;;;8.51;50.71
41222;BME280;26952;42.884;23.918;2023-02-02T11:20:32;95723.78;;;8.65;51.40
41222;BME280;26952;42.884;23.918;2023-02-02T11:23:00;95713.88;;;8.83;52.61
41222;BME280;26952;42.884;23.918;2023-02-02T11:25:35;95725.28;;;8.91;53.25
41222;BME280;26952;42.884;23.918;2023-02-02T11:28:21;95715.03;;;8.72;49.37
41222;BME280;26952;42.884;23.918;2023-02-02T11:30:50;95710.56;;;8.40;50.73
41222;BME280;26952;42.884;23.918;2023-02-02T11:35:53;95703.50;;;8.57;51.58
41222;BME280;26952;42.884;23.918;2023-02-02T11:38:19;95713.38;;;8.79;49.60
41222;BME280;26952;42.884;23.918;2023-02-02T11:40:53;95729.38;;;8.86;49.64
41222;BME280;26952;42.884;23.918;2023-02-02T11:43:29;95716.03;;;8.87;51.05
41222;BME280;26952;42.884;23.918;2023-02-02T11:46:12;95727.41;;;9.04;52.36
41222;BME280;26952;42.884;23.918;2023-02-02T11:49:11;95722.28;;;9.10;51.70
41222;BME280;26952;42.884;23.918;2023-02-02T11:51:32;95705.13;;;9.22;50.13
41222;BME280;26952;42.884;23.918;2023-02-02T11:54:17;95716.78;;;9.36;49.73
41222;BME280;26952;42.884;23.918;2023-02-02T11:56:48;95710.69;;;9.35;50.46
41222;BME280;26952;42.884;23.918;2023-02-02T12:02:30;95708.34;;;9.40;49.97
41222;BME280;26952;42.884;23.918;2023-02-02T12:07:40;95681.09;;;9.56;49.81
41222;BME280;26952;42.884;23.918;2023-02-02T12:10:24;95698.00;;;9.86;50.97
41222;BME280;26952;42.884;23.918;2023-02-02T12:13:02;95693.44;;;9.63;48.49
41222;BME280;26952;42.884;23.918;2023-02-02T12:15:46;95695.00;;;9.34;48.69
41222;BME280;26952;42.884;23.918;2023-02-02T12:21:02;95691.28;;;9.04;50.27
41222;BME280;26952;42.884;23.918;2023-02-02T12:24:00;95679.22;;;8.94;50.39
41222;BME280;26952;42.884;23.918;2023-02-02T12:26:30;95670.16;;;9.04;51.36
41222;BME280;26952;42.884;23.918;2023-02-02T12:56:36;95667.53;;;8.56;52.53
41222;BME280;26952;42.884;23.918;2023-02-02T13:07:51;95760.63;;;4.72;100.00
41222;BME280;26952;42.884;23.918;2023-02-02T13:10:37;95776.03;;;4.94;100.00
41222;BME280;26952;42.884;23.918;2023-02-02T13:13:08;95756.28;;;4.99;100.00
41222;BME280;26952;42.884;23.918;2023-02-02T13:15:43;95775.84;;;5.24;100.00
41222;BME280;26952;42.884;23.918;2023-02-02T13:18:15;95787.88;;;5.63;100.00
41222;BME280;26952;42.884;23.918;2023-02-02T13:21:26;95778.38;;;5.89;98.78
41222;BME280;26952;42.884;23.918;2023-02-02T13:23:36;95785.69;;;6.22;95.63
41222;BME280;26952;42.884;23.918;2023-02-02T13:26:16;95796.81;;;6.07;93.95
41222;BME280;26952;42.884;23.918;2023-02-02T13:28:52;95806.19;;;5.82;95.20
41222;BME280;26952;42.884;23.918;2023-02-02T13:31:25;95824.34;;;5.01;100.00
41222;BME280;26952;42.884;23.918;2023-02-02T13:34:02;95821.44;;;4.47;100.00
41222;BME280;26952;42.884;23.918;2023-02-02T13:36:33;95788.06;;;4.30;100.00
41222;BME280;26952;42.884;23.918;2023-02-02T13:39:02;95836.03;;;4.30;100.00
41222;BME280;26952;42.884;23.918;2023-02-02T13:41:35;95832.41;;;4.21;100.00
41222;BME280;26952;42.884;23.918;2023-02-02T13:44:38;95851.59;;;4.32;100.00
41222;BME280;26952;42.884;23.918;2023-02-02T13:47:17;95821.94;;;4.21;100.00
41222;BME280;26952;42.884;23.918;2023-02-02T13:49:49;95832.81;;;4.17;100.00
41222;BME280;26952;42.884;23.918;2023-02-02T13:57:45;95836.13;;;4.09;100.00
41222;BME280;26952;42.884;23.918;2023-02-02T14:00:35;95836.66;;;3.73;100.00
41222;BME280;26952;42.884;23.918;2023-02-02T14:06:07;95825.69;;;3.49;100.00
41222;BME280;26952;42.884;23.918;2023-02-02T14:08:34;95844.88;;;3.59;100.00
41222;BME280;26952;42.884;23.918;2023-02-02T14:11:02;95833.19;;;3.33;100.00
41222;BME280;26952;42.884;23.918;2023-02-02T14:13:42;95845.44;;;3.12;100.00
41222;BME280;26952;42.884;23.918;2023-02-02T14:18:57;95852.94;;;2.85;100.00
41222;BME280;26952;42.884;23.918;2023-02-02T14:31:55;95837.06;;;3.18;100.00
41222;BME280;26952;42.884;23.918;2023-02-02T14:36:57;95831.22;;;3.56;100.00
41222;BME280;26952;42.884;23.918;2023-02-02T14:39:28;95837.66;;;3.72;100.00
41222;BME280;26952;42.884;23.918;2023-02-02T14:42:13;95837.81;;;3.80;100.00
41222;BME280;26952;42.884;23.918;2023-02-02T14:45:12;95827.50;;;3.88;100.00
41222;BME280;26952;42.884;23.918;2023-02-02T14:47:47;95841.75;;;3.65;100.00
41222;BME280;26952;42.884;23.918;2023-02-02T14:50:22;95823.91;;;3.50;100.00
41222;BME280;26952;42.884;23.918;2023-02-02T14:53:15;95848.25;;;3.50;100.00
41222;BME280;26952;42.884;23.918;2023-02-02T14:56:05;95867.63;;;3.38;100.00
41222;BME280;26952;42.884;23.918;2023-02-02T14:58:42;95863.47;;;3.36;100.00
41222;BME280;26952;42.884;23.918;2023-02-02T15:03:55;95851.44;;;3.24;100.00
41222;BME280;26952;42.884;23.918;2023-02-02T15:12:17;95856.75;;;3.02;100.00
41222;BME280;26952;42.884;23.918;2023-02-02T15:14:46;95863.59;;;2.93;100.00
41222;BME280;26952;42.884;23.918;2023-02-02T15:22:57;95862.91;;;2.91;100.00
41222;BME280;26952;42.884;23.918;2023-02-02T15:25:33;95870.78;;;2.80;100.00
41222;BME280;26952;42.884;23.918;2023-02-02T15:30:51;95871.94;;;2.87;100.00
41222;BME280;26952;42.884;23.918;2023-02-02T15:33:30;95885.59;;;2.91;100.00
41222;BME280;26952;42.884;23.918;2023-02-02T15:36:03;95896.16;;;2.89;100.00
41222;BME280;26952;42.884;23.918;2023-02-02T15:38:34;95891.38;;;2.94;100.00
41222;BME280;26952;42.884;23.918;2023-02-02T15:41:24;95880.56;;;2.99;100.00